createdAt,value
2023-01-28T00:00:10.502Z,27.37
2023-01-28T00:02:41.390Z,29.20
2023-01-28T00:05:09.727Z,28.43
2023-01-28T00:07:37.905Z,27.10
2023-01-28T00:10:06.691Z,27.07
2023-01-28T00:12:35.283Z,26.63
2023-01-28T00:15:03.310Z,29.30
2023-01-28T00:17:31.728Z,27.73
2023-01-28T00:20:00.927Z,27.57
2023-01-28T00:22:33.076Z,27.00
2023-01-28T00:25:01.262Z,24.03
2023-01-28T00:27:29.533Z,27.27
2023-01-28T00:29:57.590Z,24.53
2023-01-28T00:32:25.916Z,21.77
2023-01-28T00:34:53.977Z,24.63
2023-01-28T00:37:22.974Z,21.27
2023-01-28T00:39:51.056Z,24.53
2023-01-28T00:42:19.440Z,26.23
2023-01-28T00:44:48.254Z,23.13
2023-01-28T00:47:16.339Z,26.53
2023-01-28T00:49:44.483Z,23.93
2023-01-28T00:52:12.593Z,24.17
2023-01-28T00:54:41.568Z,27.43
2023-01-28T00:57:10.891Z,25.57
2023-01-28T00:59:43.418Z,23.70
2023-01-28T01:02:14.535Z,25.83
2023-01-28T01:04:55.320Z,23.53
2023-01-28T01:07:35.207Z,23.57
2023-01-28T01:10:04.080Z,24.70
2023-01-28T01:12:32.634Z,23.20
2023-01-28T01:15:04.752Z,24.47
2023-01-28T01:17:33.266Z,23.23
2023-01-28T01:20:09.861Z,22.27
2023-01-28T01:22:38.239Z,23.60
2023-01-28T01:25:07.420Z,23.40
2023-01-28T01:27:35.449Z,23.10
2023-01-28T01:30:03.944Z,24.60
2023-01-28T01:32:35.971Z,23.60
2023-01-28T01:35:14.023Z,26.90
2023-01-28T01:37:45.341Z,19.93
2023-01-28T01:40:16.002Z,20.40
2023-01-28T01:42:44.288Z,22.03
2023-01-28T01:45:17.714Z,20.37
2023-01-28T01:48:00.123Z,19.73
2023-01-28T01:50:45.910Z,21.57
2023-01-28T01:53:21.500Z,21.63
2023-01-28T01:56:04.959Z,20.73
2023-01-28T01:58:36.685Z,25.07
2023-01-28T02:01:05.981Z,21.57
2023-01-28T02:03:41.847Z,23.27
2023-01-28T02:06:10.321Z,23.37
2023-01-28T02:08:38.276Z,23.97
2023-01-28T02:11:07.819Z,28.50
2023-01-28T02:13:41.278Z,30.53
2023-01-28T02:16:10.410Z,29.50
2023-01-28T02:18:38.888Z,24.73
2023-01-28T02:21:15.917Z,19.97
2023-01-28T02:23:54.470Z,25.13
2023-01-28T02:26:46.558Z,18.87
2023-01-28T02:29:19.062Z,22.00
2023-01-28T02:32:00.002Z,20.30
2023-01-28T02:34:32.890Z,20.90
2023-01-28T02:37:10.466Z,20.93
2023-01-28T02:39:46.085Z,22.23
2023-01-28T02:42:34.762Z,20.43
2023-01-28T02:45:03.096Z,23.50
2023-01-28T02:47:50.040Z,19.63
2023-01-28T02:50:19.105Z,23.27
2023-01-28T02:53:44.408Z,19.40
2023-01-28T02:56:40.692Z,21.90
2023-01-28T02:59:31.569Z,21.60
2023-01-28T03:02:10.809Z,20.13
2023-01-28T03:04:45.849Z,19.67
2023-01-28T03:07:15.896Z,19.60
2023-01-28T03:09:46.305Z,20.73
2023-01-28T03:12:45.136Z,20.43
2023-01-28T03:15:53.725Z,19.70
2023-01-28T03:18:47.682Z,19.40
2023-01-28T03:21:52.915Z,21.23
2023-01-28T03:24:43.700Z,20.20
2023-01-28T03:27:36.166Z,20.47
2023-01-28T03:30:28.914Z,20.50
2023-01-28T03:33:15.861Z,21.80
2023-01-28T03:36:20.981Z,21.47
2023-01-28T03:38:49.143Z,18.07
2023-01-28T03:41:22.866Z,21.10
2023-01-28T03:43:52.078Z,23.37
2023-01-28T03:46:20.430Z,20.83
2023-01-28T03:48:48.760Z,21.67
2023-01-28T03:51:18.159Z,22.90
2023-01-28T03:53:46.290Z,20.90
2023-01-28T03:56:19.877Z,21.97
2023-01-28T03:58:54.503Z,23.33
2023-01-28T04:01:22.958Z,21.53
2023-01-28T04:03:50.894Z,22.27
2023-01-28T04:06:20.116Z,21.63
2023-01-28T04:09:00.484Z,22.07
2023-01-28T04:11:29.139Z,20.93
2023-01-28T04:13:58.208Z,21.00
2023-01-28T04:16:26.618Z,16.70
2023-01-28T04:18:55.112Z,21.87
2023-01-28T04:21:23.358Z,20.20
2023-01-28T04:23:51.978Z,21.70
2023-01-28T04:26:22.185Z,18.57
2023-01-28T04:28:50.246Z,20.10
2023-01-28T04:31:18.200Z,22.43
2023-01-28T04:33:47.013Z,23.37
2023-01-28T04:36:15.068Z,21.47
2023-01-28T04:38:43.371Z,20.67
2023-01-28T04:41:11.704Z,20.07
2023-01-28T04:43:39.811Z,23.60
2023-01-28T04:46:07.848Z,17.97
2023-01-28T04:48:36.993Z,20.43
2023-01-28T04:51:05.531Z,18.97
2023-01-28T04:53:33.968Z,19.73
2023-01-28T04:56:02.031Z,21.07
2023-01-28T04:58:30.333Z,18.17
2023-01-28T05:00:59.554Z,20.30
2023-01-28T05:03:27.677Z,21.23
2023-01-28T05:05:55.868Z,20.63
2023-01-28T05:08:24.066Z,19.57
2023-01-28T05:10:52.124Z,18.50
2023-01-28T05:13:20.193Z,18.73
2023-01-28T05:15:53.285Z,21.23
2023-01-28T05:18:21.664Z,20.40
2023-01-28T05:20:49.660Z,14.63
2023-01-28T05:23:20.621Z,17.80
2023-01-28T05:25:48.691Z,19.47
2023-01-28T05:28:17.231Z,19.97
2023-01-28T05:30:45.808Z,19.17
2023-01-28T05:33:15.247Z,17.80
2023-01-28T05:35:44.381Z,18.73
2023-01-28T05:38:15.205Z,19.50
2023-01-28T05:40:44.204Z,15.93
2023-01-28T05:43:13.474Z,15.80
2023-01-28T05:45:42.105Z,19.73
2023-01-28T05:48:15.170Z,16.20
2023-01-28T05:50:43.292Z,18.93
2023-01-28T05:53:14.262Z,17.73
2023-01-28T05:55:42.227Z,17.27
2023-01-28T05:58:10.259Z,18.97
2023-01-28T06:00:38.160Z,16.70
2023-01-28T06:03:06.465Z,16.60
2023-01-28T06:05:34.604Z,18.87
2023-01-28T06:08:02.646Z,17.40
2023-01-28T06:10:31.543Z,15.20
2023-01-28T06:12:59.833Z,17.53
2023-01-28T06:15:28.023Z,15.17
2023-01-28T06:17:56.191Z,16.73
2023-01-28T06:20:24.307Z,18.60
2023-01-28T06:22:52.962Z,14.77
2023-01-28T06:25:21.338Z,16.33
2023-01-28T06:27:51.810Z,16.40
2023-01-28T06:30:20.539Z,15.27
2023-01-28T06:32:54.775Z,15.90
2023-01-28T06:35:24.419Z,16.17
2023-01-28T06:37:53.530Z,16.90
2023-01-28T06:40:23.559Z,16.93
2023-01-28T06:42:54.892Z,15.50
2023-01-28T06:45:23.229Z,15.03
2023-01-28T06:47:51.660Z,15.90
2023-01-28T06:50:22.522Z,13.50
2023-01-28T06:52:51.450Z,15.10
2023-01-28T06:55:20.422Z,12.17
2023-01-28T06:57:48.874Z,12.93
2023-01-28T07:00:17.839Z,15.10
2023-01-28T07:02:46.109Z,16.37
2023-01-28T07:05:14.367Z,16.33
2023-01-28T07:07:45.091Z,15.70
2023-01-28T07:10:18.237Z,13.83
2023-01-28T07:12:47.635Z,12.53
2023-01-28T07:15:16.691Z,14.57
2023-01-28T07:17:45.515Z,14.93
2023-01-28T07:20:16.042Z,12.67
2023-01-28T07:22:45.405Z,13.90
2023-01-28T07:25:17.197Z,15.30
2023-01-28T07:27:49.743Z,15.07
2023-01-28T07:30:19.327Z,13.50
2023-01-28T07:32:48.184Z,13.30
2023-01-28T07:35:16.531Z,14.13
2023-01-28T07:37:54.778Z,16.97
2023-01-28T07:40:23.219Z,16.53
2023-01-28T07:42:51.691Z,16.93
2023-01-28T07:45:27.247Z,16.80
2023-01-28T07:47:57.114Z,18.90
2023-01-28T07:50:26.529Z,19.30
2023-01-28T07:52:55.116Z,18.27
2023-01-28T07:55:23.408Z,18.30
2023-01-28T07:57:57.238Z,16.23
2023-01-28T08:00:27.476Z,16.93
2023-01-28T08:03:00.752Z,17.10
2023-01-28T08:05:44.503Z,19.07
2023-01-28T08:08:13.037Z,17.43
2023-01-28T08:10:41.722Z,17.67
2023-01-28T08:13:12.253Z,18.73
2023-01-28T08:15:41.404Z,16.03
2023-01-28T08:18:13.654Z,15.50
2023-01-28T08:20:45.082Z,16.73
2023-01-28T08:23:19.049Z,16.67
2023-01-28T08:25:48.055Z,15.47
2023-01-28T08:28:17.371Z,15.97
2023-01-28T08:30:48.049Z,10.93
2023-01-28T08:33:17.550Z,17.33
2023-01-28T08:35:45.796Z,16.10
2023-01-28T08:38:18.400Z,13.23
2023-01-28T08:40:47.232Z,16.13
2023-01-28T08:43:15.871Z,17.10
2023-01-28T08:45:44.757Z,14.33
2023-01-28T08:48:17.075Z,15.90
2023-01-28T08:50:45.894Z,16.37
2023-01-28T08:53:22.002Z,16.23
2023-01-28T08:55:50.191Z,16.53
2023-01-28T08:58:19.854Z,17.73
2023-01-28T09:00:48.705Z,17.27
2023-01-28T09:03:17.935Z,15.80
2023-01-28T09:05:47.162Z,16.00
2023-01-28T09:08:16.432Z,16.60
2023-01-28T09:10:45.057Z,17.33
2023-01-28T09:13:15.809Z,15.87
2023-01-28T09:15:44.467Z,15.57
2023-01-28T09:18:12.791Z,12.80
2023-01-28T09:20:41.188Z,14.43
2023-01-28T09:23:10.526Z,16.10
2023-01-28T09:25:39.596Z,15.90
2023-01-28T09:28:08.699Z,14.23
2023-01-28T09:30:38.401Z,14.60
2023-01-28T09:33:07.734Z,14.93
2023-01-28T09:35:37.258Z,17.93
2023-01-28T09:38:05.993Z,14.70
2023-01-28T09:40:37.843Z,17.90
2023-01-28T09:43:26.406Z,17.20
2023-01-28T09:46:07.108Z,16.80
2023-01-28T09:48:48.668Z,13.73
2023-01-28T09:51:41.237Z,15.67
2023-01-28T09:54:23.774Z,14.07
2023-01-28T09:56:56.418Z,16.27
2023-01-28T09:59:25.096Z,15.67
2023-01-28T10:02:20.199Z,15.03
2023-01-28T10:04:59.358Z,14.80
2023-01-28T10:07:37.468Z,16.50
2023-01-28T10:10:22.183Z,14.40
2023-01-28T10:12:54.587Z,15.20
2023-01-28T10:15:37.696Z,15.43
2023-01-28T10:18:17.284Z,14.97
2023-01-28T10:20:50.700Z,15.50
2023-01-28T10:23:37.560Z,14.13
2023-01-28T10:26:12.081Z,14.40
2023-01-28T10:28:40.521Z,13.00
2023-01-28T10:31:16.497Z,13.83
2023-01-28T10:33:45.039Z,15.87
2023-01-28T10:36:13.623Z,15.40
2023-01-28T10:38:41.750Z,15.70
2023-01-28T10:41:12.548Z,13.70
2023-01-28T10:43:42.608Z,16.80
2023-01-28T10:46:23.560Z,14.50
2023-01-28T10:49:10.668Z,14.80
2023-01-28T10:51:41.641Z,14.07
2023-01-28T10:54:29.030Z,15.03
2023-01-28T10:57:03.501Z,14.43
2023-01-28T10:59:42.145Z,12.63
2023-01-28T11:02:32.844Z,10.33
2023-01-28T11:05:21.329Z,12.97
2023-01-28T11:07:52.580Z,15.10
2023-01-28T11:10:32.730Z,13.53
2023-01-28T11:13:03.169Z,16.90
2023-01-28T11:15:31.922Z,12.50
2023-01-28T11:18:10.181Z,15.50
2023-01-28T11:20:42.559Z,14.10
2023-01-28T11:23:25.667Z,12.07
2023-01-28T11:26:15.317Z,14.93
2023-01-28T11:28:43.918Z,12.57
2023-01-28T11:31:15.932Z,13.70
2023-01-28T11:33:54.727Z,15.17
2023-01-28T11:36:32.863Z,15.80
2023-01-28T11:39:02.379Z,15.83
2023-01-28T11:41:35.706Z,12.23
2023-01-28T11:44:27.507Z,16.50
2023-01-28T11:47:08.052Z,14.17
2023-01-28T11:49:54.694Z,11.37
2023-01-28T11:52:55.195Z,13.30
2023-01-28T11:55:40.812Z,13.50
2023-01-28T11:58:22.942Z,12.57
2023-01-28T12:01:27.755Z,13.80
2023-01-28T12:04:17.162Z,12.07
2023-01-28T12:07:12.139Z,13.03
2023-01-28T12:09:47.091Z,11.90
2023-01-28T12:12:34.003Z,15.07
2023-01-28T12:15:32.736Z,13.63
2023-01-28T12:18:26.012Z,13.73
2023-01-28T12:21:14.016Z,12.77
2023-01-28T12:23:58.126Z,12.70
2023-01-28T12:26:53.575Z,13.90
2023-01-28T12:29:25.090Z,13.97
2023-01-28T12:31:59.223Z,11.53
2023-01-28T12:34:45.743Z,11.70
2023-01-28T12:37:26.426Z,13.50
2023-01-28T12:40:13.038Z,13.00
2023-01-28T12:42:57.901Z,13.77
2023-01-28T12:45:42.907Z,13.30
2023-01-28T12:48:21.665Z,14.77
2023-01-28T12:50:57.900Z,12.33
2023-01-28T12:53:45.524Z,11.03
2023-01-28T12:56:24.270Z,11.37
2023-01-28T12:59:07.431Z,12.27
2023-01-28T13:01:44.701Z,12.00
2023-01-28T13:04:50.161Z,12.60
2023-01-28T13:07:24.516Z,10.97
2023-01-28T13:10:18.233Z,9.83
2023-01-28T13:12:47.419Z,14.47
2023-01-28T13:15:17.973Z,13.87
2023-01-28T13:18:00.936Z,12.53
2023-01-28T13:20:40.480Z,11.50
2023-01-28T13:23:26.914Z,11.87
2023-01-28T13:25:56.262Z,12.33
2023-01-28T13:28:32.809Z,10.10
2023-01-28T13:31:14.719Z,11.10
2023-01-28T13:33:43.599Z,13.53
2023-01-28T13:36:33.531Z,13.90
2023-01-28T13:39:06.062Z,13.73
2023-01-28T13:41:45.711Z,14.67
2023-01-28T13:44:28.229Z,13.33
2023-01-28T13:47:13.209Z,13.33
2023-01-28T13:49:56.613Z,13.33
2023-01-28T13:52:31.031Z,14.40
2023-01-28T13:55:25.915Z,11.07
2023-01-28T13:58:28.833Z,11.47
2023-01-28T14:01:20.281Z,12.70
2023-01-28T14:04:32.821Z,12.90
2023-01-28T14:07:18.551Z,12.17
2023-01-28T14:10:14.403Z,12.37
2023-01-28T14:13:07.376Z,11.27
2023-01-28T14:15:47.230Z,12.73
2023-01-28T14:18:40.194Z,12.73
2023-01-28T14:21:20.455Z,10.97
2023-01-28T14:24:00.260Z,11.53
2023-01-28T14:27:03.993Z,12.53
2023-01-28T14:29:59.912Z,12.27
2023-01-28T14:32:31.213Z,11.43
2023-01-28T14:35:02.658Z,10.80
2023-01-28T14:37:32.118Z,11.50
2023-01-28T14:40:06.322Z,11.83
2023-01-28T14:42:44.453Z,12.63
2023-01-28T14:45:49.745Z,11.13
2023-01-28T14:48:39.096Z,10.00
2023-01-28T14:51:32.459Z,12.97
2023-01-28T14:54:28.542Z,11.43
2023-01-28T14:57:29.371Z,11.53
2023-01-28T15:00:02.632Z,11.43
2023-01-28T15:02:32.269Z,12.80
2023-01-28T15:05:21.714Z,12.80
2023-01-28T15:07:52.411Z,11.20
2023-01-28T15:10:34.556Z,12.30
2023-01-28T15:13:12.561Z,12.90
2023-01-28T15:15:42.275Z,11.63
2023-01-28T15:18:23.142Z,11.73
2023-01-28T15:20:53.740Z,11.20
2023-01-28T15:23:28.997Z,11.63
2023-01-28T15:25:57.491Z,12.57
2023-01-28T15:28:31.554Z,13.10
2023-01-28T15:31:00.367Z,11.10
2023-01-28T15:33:33.928Z,12.50
2023-01-28T15:36:02.470Z,12.30
2023-01-28T15:38:30.947Z,12.30
2023-01-28T15:41:03.819Z,8.50
2023-01-28T15:43:35.032Z,11.47
2023-01-28T15:46:03.423Z,12.97
2023-01-28T15:48:33.415Z,13.27
2023-01-28T15:51:04.084Z,11.23
2023-01-28T15:53:42.629Z,12.00
2023-01-28T15:56:13.598Z,13.27
2023-01-28T15:58:42.643Z,12.93
2023-01-28T16:01:15.124Z,10.03
2023-01-28T16:03:45.106Z,11.63
2023-01-28T16:06:18.919Z,13.40
2023-01-28T16:08:59.523Z,11.00
2023-01-28T16:11:38.856Z,10.80
2023-01-28T16:14:07.930Z,12.17
2023-01-28T16:16:41.029Z,13.23
2023-01-28T16:19:24.586Z,12.73
2023-01-28T16:21:52.564Z,12.33
2023-01-28T16:24:25.763Z,12.40
2023-01-28T16:27:10.663Z,11.90
2023-01-28T16:29:39.739Z,13.30
2023-01-28T16:32:31.055Z,12.20
2023-01-28T16:34:59.867Z,12.77
2023-01-28T16:37:28.453Z,15.07
2023-01-28T16:39:58.114Z,11.93
2023-01-28T16:42:28.452Z,13.30
2023-01-28T16:44:56.852Z,12.90
2023-01-28T16:47:24.925Z,13.30
2023-01-28T16:49:52.919Z,13.47
2023-01-28T16:52:20.879Z,13.37
2023-01-28T16:54:49.051Z,14.00
2023-01-28T16:57:19.372Z,13.40
2023-01-28T16:59:47.523Z,13.10
2023-01-28T17:02:17.262Z,14.57
2023-01-28T17:04:49.076Z,13.20
2023-01-28T17:07:19.780Z,13.80
2023-01-28T17:09:48.197Z,13.87
2023-01-28T17:12:16.446Z,12.97
2023-01-28T17:14:44.291Z,12.70
2023-01-28T17:17:12.564Z,13.40
2023-01-28T17:19:44.241Z,12.30
2023-01-28T17:22:12.431Z,12.23
2023-01-28T17:24:40.502Z,13.33
2023-01-28T17:27:08.484Z,12.93
2023-01-28T17:29:36.860Z,13.37
2023-01-28T17:32:05.759Z,14.43
2023-01-28T17:34:34.596Z,14.17
2023-01-28T17:37:06.567Z,10.93
2023-01-28T17:39:34.985Z,12.93
2023-01-28T17:42:03.562Z,13.53
2023-01-28T17:44:31.873Z,13.03
2023-01-28T17:47:00.944Z,14.03
2023-01-28T17:49:29.055Z,14.33
2023-01-28T17:51:57.130Z,13.80
2023-01-28T17:54:27.345Z,12.23
2023-01-28T17:56:56.594Z,12.90
2023-01-28T17:59:26.006Z,13.17
2023-01-28T18:01:55.854Z,12.20
2023-01-28T18:04:24.389Z,12.70
2023-01-28T18:06:52.953Z,13.23
2023-01-28T18:09:21.439Z,12.03
2023-01-28T18:11:52.480Z,13.73
2023-01-28T18:14:23.000Z,13.73
2023-01-28T18:16:52.491Z,12.17
2023-01-28T18:19:21.262Z,14.00
2023-01-28T18:21:53.375Z,13.53
2023-01-28T18:24:24.717Z,14.90
2023-01-28T18:26:58.607Z,13.83
2023-01-28T18:29:27.975Z,11.80
2023-01-28T18:31:57.078Z,13.43
2023-01-28T18:34:27.123Z,16.77
2023-01-28T18:36:57.711Z,15.30
2023-01-28T18:39:30.846Z,15.10
2023-01-28T18:41:59.966Z,14.67
2023-01-28T18:44:33.508Z,14.00
2023-01-28T18:47:02.051Z,14.93
2023-01-28T18:49:32.349Z,14.60
2023-01-28T18:52:00.815Z,13.20
2023-01-28T18:54:29.383Z,14.00
2023-01-28T18:56:58.254Z,14.20
2023-01-28T18:59:26.732Z,14.17
2023-01-28T19:01:55.197Z,14.80
2023-01-28T19:04:23.348Z,13.07
2023-01-28T19:06:52.182Z,14.23
2023-01-28T19:09:20.747Z,14.00
2023-01-28T19:11:53.585Z,14.03
2023-01-28T19:14:21.642Z,13.40
2023-01-28T19:16:49.989Z,14.00
2023-01-28T19:19:18.786Z,13.87
2023-01-28T19:21:47.776Z,14.10
2023-01-28T19:24:19.603Z,14.23
2023-01-28T19:26:50.656Z,14.73
2023-01-28T19:29:19.903Z,13.40
2023-01-28T19:31:50.191Z,13.93
2023-01-28T19:34:21.807Z,14.30
2023-01-28T19:36:50.512Z,13.10
2023-01-28T19:39:21.356Z,13.83
2023-01-28T19:41:49.861Z,13.40
2023-01-28T19:44:18.984Z,14.40
2023-01-28T19:46:48.199Z,13.80
2023-01-28T19:49:19.473Z,13.00
2023-01-28T19:51:48.432Z,12.07
2023-01-28T19:54:17.027Z,13.27
2023-01-28T19:56:45.442Z,13.47
2023-01-28T19:59:15.542Z,13.27
2023-01-28T20:01:44.228Z,13.57
2023-01-28T20:04:12.983Z,13.20
2023-01-28T20:06:41.567Z,12.83
2023-01-28T20:09:20.599Z,13.23
2023-01-28T20:11:48.829Z,12.73
2023-01-28T20:14:18.430Z,12.93
2023-01-28T20:16:46.444Z,12.67
2023-01-28T20:19:19.551Z,12.07
2023-01-28T20:21:48.387Z,12.03
2023-01-28T20:24:17.042Z,12.43
2023-01-28T20:26:45.588Z,12.80
2023-01-28T20:29:18.335Z,12.00
2023-01-28T20:31:54.629Z,12.90
2023-01-28T20:34:34.717Z,11.67
2023-01-28T20:37:03.705Z,13.10
2023-01-28T20:39:35.024Z,12.57
2023-01-28T20:42:07.253Z,12.47
2023-01-28T20:44:36.068Z,12.50
2023-01-28T20:47:05.267Z,12.23
2023-01-28T20:49:34.433Z,13.10
2023-01-28T20:52:02.946Z,12.23
2023-01-28T20:54:34.892Z,11.87
2023-01-28T20:57:05.095Z,11.47
2023-01-28T20:59:33.037Z,11.60
2023-01-28T21:02:01.354Z,12.47
2023-01-28T21:04:30.540Z,10.40
2023-01-28T21:06:59.173Z,11.40
2023-01-28T21:09:28.284Z,11.20
2023-01-28T21:11:59.289Z,11.23
2023-01-28T21:14:27.888Z,9.97
2023-01-28T21:16:56.332Z,10.43
2023-01-28T21:19:27.367Z,10.07
2023-01-28T21:21:57.963Z,11.03
2023-01-28T21:24:26.793Z,9.70
2023-01-28T21:26:55.158Z,10.13
2023-01-28T21:29:23.409Z,10.70
2023-01-28T21:31:51.556Z,10.80
2023-01-28T21:34:20.443Z,10.90
2023-01-28T21:36:48.737Z,10.70
2023-01-28T21:39:16.776Z,10.03
2023-01-28T21:41:45.115Z,10.37
2023-01-28T21:44:13.880Z,10.33
2023-01-28T21:46:42.649Z,10.17
2023-01-28T21:49:15.992Z,10.23
2023-01-28T21:51:47.598Z,10.20
2023-01-28T21:54:18.262Z,11.40
2023-01-28T21:56:49.357Z,10.30
2023-01-28T21:59:33.461Z,10.03
2023-01-28T22:02:05.448Z,10.60
2023-01-28T22:04:39.028Z,9.57
2023-01-28T22:07:09.865Z,10.43
2023-01-28T22:09:38.709Z,10.93
2023-01-28T22:12:08.477Z,9.53
2023-01-28T22:14:38.241Z,9.47
2023-01-28T22:17:11.776Z,10.57
2023-01-28T22:19:40.693Z,10.40
2023-01-28T22:22:08.701Z,9.47
2023-01-28T22:24:36.920Z,10.40
2023-01-28T22:27:05.011Z,10.13
2023-01-28T22:29:33.611Z,9.90
2023-01-28T22:32:06.058Z,11.13
2023-01-28T22:34:35.542Z,9.40
2023-01-28T22:37:03.778Z,9.30
2023-01-28T22:39:31.783Z,9.30
2023-01-28T22:42:00.611Z,9.63
2023-01-28T22:44:28.929Z,9.47
2023-01-28T22:46:57.426Z,9.57
2023-01-28T22:49:27.289Z,9.27
2023-01-28T22:51:55.523Z,9.50
2023-01-28T22:54:23.587Z,7.23
2023-01-28T22:56:52.207Z,9.83
2023-01-28T22:59:20.448Z,8.83
2023-01-28T23:01:48.950Z,8.70
2023-01-28T23:04:17.659Z,9.73
2023-01-28T23:06:46.024Z,9.03
2023-01-28T23:09:14.588Z,9.40
2023-01-28T23:11:43.525Z,7.67
2023-01-28T23:14:47.904Z,8.73
2023-01-28T23:17:34.635Z,8.90
2023-01-28T23:20:21.652Z,9.13
2023-01-28T23:23:08.125Z,9.20
2023-01-28T23:25:36.600Z,9.43
2023-01-28T23:28:05.022Z,7.90
2023-01-28T23:30:34.220Z,8.57
2023-01-28T23:33:04.615Z,9.10
2023-01-28T23:35:33.176Z,9.03
2023-01-28T23:38:01.558Z,9.40
2023-01-28T23:40:30.699Z,10.43
2023-01-28T23:42:58.904Z,7.50
2023-01-28T23:45:27.898Z,9.77
2023-01-28T23:47:56.685Z,9.20
2023-01-28T23:50:24.853Z,9.63
2023-01-28T23:52:55.243Z,9.77
2023-01-28T23:55:24.528Z,9.13
2023-01-28T23:57:53.100Z,8.97
